createdAt,value
2017-06-16T00:02:28.043Z,28.03
2017-06-16T00:04:55.502Z,18.80
2017-06-16T00:07:22.972Z,23.13
2017-06-16T00:09:50.446Z,19.50
2017-06-16T00:12:17.924Z,20.20
2017-06-16T00:14:45.379Z,18.80
2017-06-16T00:17:12.862Z,17.23
2017-06-16T00:19:40.330Z,22.00
2017-06-16T00:22:07.804Z,19.50
2017-06-16T00:24:35.281Z,21.90
2017-06-16T00:27:02.746Z,19.00
2017-06-16T00:29:30.211Z,21.43
2017-06-16T00:31:57.684Z,19.90
2017-06-16T00:34:25.152Z,20.43
2017-06-16T00:36:52.635Z,21.03
2017-06-16T00:39:20.099Z,17.37
2017-06-16T00:41:47.578Z,19.33
2017-06-16T00:44:15.042Z,16.40
2017-06-16T00:46:42.498Z,15.57
2017-06-16T00:49:09.970Z,20.73
2017-06-16T00:51:37.427Z,14.27
2017-06-16T00:54:04.899Z,18.70
2017-06-16T00:56:32.382Z,20.33
2017-06-16T00:58:59.927Z,20.50
2017-06-16T01:01:27.384Z,16.43
2017-06-16T01:03:54.850Z,13.33
2017-06-16T01:06:22.326Z,15.07
2017-06-16T01:08:49.794Z,18.63
2017-06-16T01:11:17.340Z,12.70
2017-06-16T01:13:44.798Z,15.17
2017-06-16T01:16:12.267Z,11.50
2017-06-16T01:18:39.742Z,14.70
2017-06-16T01:21:07.202Z,11.20
2017-06-16T01:23:34.673Z,11.73
2017-06-16T01:26:02.138Z,13.93
2017-06-16T01:28:29.618Z,15.20
2017-06-16T01:30:57.075Z,12.23
2017-06-16T01:33:24.547Z,10.93
2017-06-16T01:35:52.006Z,8.00
2017-06-16T01:38:19.466Z,8.37
2017-06-16T01:40:46.936Z,9.37
2017-06-16T01:43:14.392Z,9.50
2017-06-16T01:45:41.869Z,9.70
2017-06-16T01:48:09.331Z,8.43
2017-06-16T01:50:36.778Z,9.50
2017-06-16T01:53:05.022Z,10.63
2017-06-16T01:55:32.487Z,10.77
2017-06-16T01:57:59.964Z,12.43
2017-06-16T02:00:27.426Z,8.50
2017-06-16T02:02:55.087Z,12.07
2017-06-16T02:05:23.323Z,9.50
2017-06-16T02:07:50.783Z,9.93
2017-06-16T02:10:18.264Z,11.73
2017-06-16T02:12:45.718Z,7.77
2017-06-16T02:15:13.178Z,7.93
2017-06-16T02:17:41.415Z,10.77
2017-06-16T02:20:08.894Z,8.53
2017-06-16T02:22:36.350Z,8.27
2017-06-16T02:25:03.819Z,6.93
2017-06-16T02:27:31.277Z,7.73
2017-06-16T02:29:59.550Z,7.90
2017-06-16T02:32:27.011Z,13.70
2017-06-16T02:34:54.502Z,13.20
2017-06-16T02:37:21.978Z,10.23
2017-06-16T02:39:49.453Z,5.10
2017-06-16T02:42:16.942Z,8.50
2017-06-16T02:44:45.160Z,9.67
2017-06-16T02:47:12.618Z,8.60
2017-06-16T02:49:40.079Z,9.80
2017-06-16T02:52:07.588Z,12.80
2017-06-16T02:54:35.051Z,11.27
2017-06-16T02:57:02.526Z,12.17
2017-06-16T02:59:30.047Z,7.93
2017-06-16T03:01:57.498Z,9.83
2017-06-16T03:04:24.967Z,8.53
2017-06-16T03:06:52.427Z,11.07
2017-06-16T03:09:24.742Z,8.47
2017-06-16T03:11:52.213Z,10.83
2017-06-16T03:14:19.678Z,7.83
2017-06-16T03:16:47.135Z,12.07
2017-06-16T03:19:14.598Z,12.30
2017-06-16T03:21:47.810Z,11.30
2017-06-16T03:24:20.954Z,9.10
2017-06-16T03:26:48.420Z,10.53
2017-06-16T03:29:15.947Z,8.03
2017-06-16T03:31:43.406Z,7.13
2017-06-16T03:34:10.881Z,11.03
2017-06-16T03:36:38.342Z,13.63
2017-06-16T03:39:05.806Z,11.33
2017-06-16T03:41:33.262Z,7.50
2017-06-16T03:44:00.726Z,8.70
2017-06-16T03:46:28.195Z,13.87
2017-06-16T03:48:55.656Z,9.90
2017-06-16T03:51:23.147Z,13.90
2017-06-16T03:53:50.603Z,8.30
2017-06-16T03:56:18.063Z,6.83
2017-06-16T03:58:45.542Z,8.97
2017-06-16T04:01:13.015Z,10.90
2017-06-16T04:03:40.474Z,8.83
2017-06-16T04:06:07.957Z,13.33
2017-06-16T04:08:35.431Z,7.50
2017-06-16T04:11:02.886Z,8.80
2017-06-16T04:13:30.375Z,20.90
2017-06-16T04:15:57.839Z,8.53
2017-06-16T04:18:25.304Z,7.73
2017-06-16T04:20:52.779Z,11.33
2017-06-16T04:23:20.239Z,4.63
2017-06-16T04:25:47.695Z,8.87
2017-06-16T04:28:15.163Z,10.37
2017-06-16T04:30:42.620Z,7.10
2017-06-16T04:33:10.087Z,8.17
2017-06-16T04:35:38.318Z,8.10
2017-06-16T04:38:05.787Z,8.57
2017-06-16T04:40:33.246Z,11.87
2017-06-16T04:43:00.710Z,16.73
2017-06-16T04:45:28.182Z,14.37
2017-06-16T04:47:55.655Z,9.30
2017-06-16T04:50:23.122Z,10.57
2017-06-16T04:52:50.583Z,8.37
2017-06-16T04:55:18.058Z,10.37
2017-06-16T04:57:45.522Z,11.83
2017-06-16T05:00:12.995Z,13.00
2017-06-16T05:02:40.454Z,12.80
2017-06-16T05:05:07.932Z,8.63
2017-06-16T05:07:35.392Z,8.73
2017-06-16T05:10:02.862Z,12.40
2017-06-16T05:12:30.327Z,10.97
2017-06-16T05:14:57.786Z,14.10
2017-06-16T05:17:25.255Z,12.63
2017-06-16T05:19:52.734Z,8.70
2017-06-16T05:22:20.283Z,7.20
2017-06-16T05:24:47.731Z,7.33
2017-06-16T05:27:15.191Z,3.50
2017-06-16T05:29:42.659Z,11.97
2017-06-16T05:32:10.118Z,14.10
2017-06-16T05:34:37.586Z,15.70
2017-06-16T05:37:05.051Z,12.77
2017-06-16T05:39:32.506Z,15.47
2017-06-16T05:41:59.994Z,13.47
2017-06-16T05:44:27.450Z,11.70
2017-06-16T05:46:54.915Z,10.80
2017-06-16T05:49:23.747Z,13.57
2017-06-16T05:51:51.697Z,11.50
2017-06-16T05:54:19.211Z,8.80
2017-06-16T05:56:46.726Z,9.30
2017-06-16T05:59:14.194Z,9.93
2017-06-16T06:01:41.664Z,8.37
2017-06-16T06:04:09.123Z,7.43
2017-06-16T06:06:36.578Z,10.40
2017-06-16T06:09:04.055Z,10.97
2017-06-16T06:11:31.515Z,8.40
2017-06-16T06:13:58.975Z,10.20
2017-06-16T06:16:26.426Z,8.70
2017-06-16T06:18:53.882Z,11.50
2017-06-16T06:21:21.339Z,9.40
2017-06-16T06:23:48.810Z,13.37
2017-06-16T06:26:17.047Z,10.50
2017-06-16T06:28:44.519Z,11.77
2017-06-16T06:31:11.986Z,16.60
2017-06-16T06:33:40.219Z,10.53
2017-06-16T06:36:07.682Z,11.40
2017-06-16T06:38:35.142Z,16.03
2017-06-16T06:41:02.602Z,17.17
2017-06-16T06:43:30.094Z,26.70
2017-06-16T06:45:57.558Z,18.27
2017-06-16T06:48:25.044Z,11.93
2017-06-16T06:50:52.500Z,15.80
2017-06-16T06:53:19.979Z,19.87
2017-06-16T06:55:47.458Z,20.03
2017-06-16T06:58:14.922Z,15.73
2017-06-16T07:00:42.387Z,23.77
2017-06-16T07:03:09.862Z,11.60
2017-06-16T07:05:37.314Z,15.47
2017-06-16T07:08:04.816Z,11.83
2017-06-16T07:10:32.286Z,11.47
2017-06-16T07:12:59.755Z,15.00
2017-06-16T07:15:27.222Z,14.67
2017-06-16T07:17:54.679Z,20.30
2017-06-16T07:20:22.906Z,14.27
2017-06-16T07:22:50.377Z,16.77
2017-06-16T07:25:17.860Z,16.60
2017-06-16T07:27:45.349Z,15.30
2017-06-16T07:30:13.579Z,11.80
2017-06-16T07:32:41.033Z,13.53
2017-06-16T07:35:08.546Z,10.40
2017-06-16T07:37:36.022Z,13.53
2017-06-16T07:40:03.479Z,15.03
2017-06-16T07:42:31.035Z,18.73
2017-06-16T07:44:58.498Z,15.53
2017-06-16T07:47:25.950Z,13.70
2017-06-16T07:49:53.402Z,9.57
2017-06-16T07:52:20.874Z,10.83
2017-06-16T07:54:48.343Z,11.77
2017-06-16T07:57:15.799Z,15.90
2017-06-16T07:59:43.269Z,14.37
2017-06-16T08:02:10.726Z,10.80
2017-06-16T08:04:38.202Z,19.77
2017-06-16T08:07:05.655Z,5.77
2017-06-16T08:09:33.122Z,6.90
2017-06-16T08:12:00.578Z,13.60
2017-06-16T08:14:28.044Z,20.03
2017-06-16T08:16:55.521Z,11.63
2017-06-16T08:19:22.979Z,10.73
2017-06-16T08:21:50.434Z,12.30
2017-06-16T08:24:17.910Z,13.03
2017-06-16T08:26:45.375Z,11.10
2017-06-16T08:29:12.908Z,6.40
2017-06-16T08:31:40.363Z,11.00
2017-06-16T08:34:07.823Z,12.87
2017-06-16T08:36:35.412Z,13.90
2017-06-16T08:39:02.858Z,9.00
2017-06-16T08:41:30.336Z,7.27
2017-06-16T08:43:57.814Z,12.03
2017-06-16T08:46:26.042Z,11.97
2017-06-16T08:48:53.522Z,9.10
2017-06-16T08:51:21.039Z,10.70
2017-06-16T08:53:48.493Z,11.87
2017-06-16T08:56:15.958Z,10.83
2017-06-16T08:58:43.426Z,6.00
2017-06-16T09:01:10.966Z,11.83
2017-06-16T09:03:38.407Z,10.00
2017-06-16T09:06:05.886Z,6.27
2017-06-16T09:08:33.350Z,11.53
2017-06-16T09:11:00.811Z,8.30
2017-06-16T09:13:28.282Z,13.10
2017-06-16T09:15:55.805Z,9.80
2017-06-16T09:18:23.247Z,9.07
2017-06-16T09:20:50.720Z,8.83
2017-06-16T09:23:18.235Z,10.00
2017-06-16T09:25:45.690Z,9.70
2017-06-16T09:28:13.911Z,9.00
2017-06-16T09:30:41.379Z,8.20
2017-06-16T09:33:08.834Z,12.73
2017-06-16T09:35:36.294Z,8.10
2017-06-16T09:38:03.759Z,5.80
2017-06-16T09:40:31.218Z,9.20
2017-06-16T09:42:58.746Z,8.50
2017-06-16T09:45:26.187Z,7.53
2017-06-16T09:47:53.651Z,13.47
2017-06-16T09:50:21.119Z,7.10
2017-06-16T09:52:48.567Z,9.13
2017-06-16T09:55:16.057Z,18.57
2017-06-16T09:57:43.549Z,12.57
2017-06-16T10:00:10.999Z,10.50
2017-06-16T10:02:39.226Z,9.23
2017-06-16T10:05:06.674Z,7.97
2017-06-16T10:07:34.158Z,8.80
2017-06-16T10:10:01.611Z,8.07
2017-06-16T10:12:29.074Z,11.27
2017-06-16T10:14:56.563Z,10.00
2017-06-16T10:17:24.793Z,9.70
2017-06-16T10:19:52.262Z,8.33
2017-06-16T10:22:19.743Z,13.43
2017-06-16T10:24:47.198Z,6.20
2017-06-16T10:27:15.418Z,8.63
2017-06-16T10:29:42.883Z,6.63
2017-06-16T10:32:10.458Z,5.33
2017-06-16T10:34:37.967Z,11.47
2017-06-16T10:37:05.426Z,10.73
2017-06-16T10:39:32.879Z,6.73
2017-06-16T10:42:00.346Z,8.63
2017-06-16T10:44:27.811Z,9.40
2017-06-16T10:46:55.262Z,9.60
2017-06-16T10:49:22.718Z,7.30
2017-06-16T10:51:50.233Z,7.90
2017-06-16T10:54:17.679Z,6.67
2017-06-16T10:56:45.146Z,9.90
2017-06-16T10:59:12.607Z,7.30
2017-06-16T11:01:40.063Z,10.60
2017-06-16T11:04:07.562Z,9.87
2017-06-16T11:06:35.023Z,14.10
2017-06-16T11:09:02.605Z,10.20
2017-06-16T11:11:30.101Z,7.73
2017-06-16T11:13:57.579Z,6.97
2017-06-16T11:16:25.027Z,6.10
2017-06-16T11:18:53.258Z,5.73
2017-06-16T11:21:20.710Z,7.40
2017-06-16T11:23:48.172Z,7.03
2017-06-16T11:26:15.627Z,8.53
2017-06-16T11:28:43.127Z,8.47
2017-06-16T11:31:10.579Z,8.00
2017-06-16T11:33:38.039Z,5.57
2017-06-16T11:36:05.559Z,8.33
2017-06-16T11:38:33.006Z,6.50
2017-06-16T11:41:00.465Z,6.57
2017-06-16T11:43:27.934Z,7.00
2017-06-16T11:45:55.385Z,7.73
2017-06-16T11:48:22.842Z,7.03
2017-06-16T11:50:50.299Z,7.97
2017-06-16T11:53:17.778Z,10.60
2017-06-16T11:55:45.994Z,9.13
2017-06-16T11:58:13.453Z,9.80
2017-06-16T12:00:40.918Z,11.47
2017-06-16T12:03:08.370Z,7.70
2017-06-16T12:05:35.826Z,4.33
2017-06-16T12:08:03.303Z,9.07
2017-06-16T12:09:05.521Z,0.0
2017-06-16T12:10:07.180Z,0.0
2017-06-16T12:10:30.759Z,10.30
2017-06-16T12:11:58.984Z,0.0
2017-06-16T12:12:58.234Z,7.23
2017-06-16T12:13:00.687Z,0.0
2017-06-16T12:14:51.635Z,0.0
2017-06-16T12:15:25.712Z,8.07
2017-06-16T12:15:53.296Z,0.0
2017-06-16T12:17:44.065Z,0.0
2017-06-16T12:17:53.214Z,10.50
2017-06-16T12:18:45.724Z,0.0
2017-06-16T12:20:20.678Z,7.50
2017-06-16T12:20:36.746Z,0.0
2017-06-16T12:21:38.406Z,0.0
2017-06-16T12:22:48.150Z,10.20
2017-06-16T12:23:29.272Z,0.0
2017-06-16T12:24:30.935Z,0.0
2017-06-16T12:25:15.598Z,6.63
2017-06-16T12:26:22.708Z,0.0
2017-06-16T12:27:24.367Z,0.0
2017-06-16T12:27:43.067Z,10.83
2017-06-16T12:29:15.159Z,0.0
2017-06-16T12:30:10.523Z,7.27
2017-06-16T12:30:16.816Z,0.0
2017-06-16T12:32:08.603Z,0.0
2017-06-16T12:32:37.982Z,5.80
2017-06-16T12:33:10.260Z,0.0
2017-06-16T12:35:02.029Z,0.0
2017-06-16T12:35:05.442Z,5.13
2017-06-16T12:36:03.691Z,0.0
2017-06-16T12:37:32.903Z,7.17
2017-06-16T12:37:55.479Z,0.0
2017-06-16T12:38:57.137Z,0.0
2017-06-16T12:40:01.018Z,13.60
2017-06-16T12:40:48.910Z,0.0
2017-06-16T12:41:50.609Z,0.0
2017-06-16T12:42:28.478Z,7.00
2017-06-16T12:43:42.444Z,0.0
2017-06-16T12:44:44.113Z,0.0
2017-06-16T12:44:55.950Z,5.60
2017-06-16T12:46:35.884Z,0.0
2017-06-16T12:47:23.410Z,10.50
2017-06-16T12:47:37.563Z,0.0
2017-06-16T12:49:29.354Z,0.0
2017-06-16T12:49:50.884Z,5.93
2017-06-16T12:50:31.015Z,0.0
2017-06-16T12:52:18.343Z,7.73
2017-06-16T12:52:22.787Z,0.0
2017-06-16T12:53:24.444Z,0.0
2017-06-16T12:54:45.798Z,7.57
2017-06-16T12:55:16.231Z,0.0
2017-06-16T12:57:13.266Z,6.57
2017-06-16T12:59:40.742Z,8.40
2017-06-16T13:02:08.202Z,6.03
2017-06-16T13:04:35.666Z,6.50
2017-06-16T13:07:03.901Z,5.03
2017-06-16T13:09:31.355Z,7.80
2017-06-16T13:11:58.815Z,6.90
2017-06-16T13:14:26.279Z,6.53
2017-06-16T13:16:55.350Z,6.67
2017-06-16T13:19:22.818Z,8.23
2017-06-16T13:21:50.275Z,5.90
2017-06-16T13:24:17.729Z,9.07
2017-06-16T13:26:45.218Z,5.53
2017-06-16T13:29:12.675Z,8.30
2017-06-16T13:31:40.127Z,5.63
2017-06-16T13:34:07.627Z,8.93
2017-06-16T13:36:35.094Z,6.67
2017-06-16T13:39:02.555Z,7.57
2017-06-16T13:41:30.019Z,8.00
2017-06-16T13:43:57.481Z,4.67
2017-06-16T13:46:24.938Z,6.80
2017-06-16T13:48:52.403Z,7.30
2017-06-16T13:51:20.833Z,4.00
2017-06-16T13:53:48.290Z,5.37
2017-06-16T13:56:15.770Z,7.20
2017-06-16T13:58:43.227Z,6.60
2017-06-16T14:01:10.681Z,6.63
2017-06-16T14:03:38.146Z,4.63
2017-06-16T14:06:05.598Z,5.63
2017-06-16T14:08:33.050Z,4.93
2017-06-16T14:11:00.546Z,5.03
2017-06-16T14:13:28.000Z,6.40
2017-06-16T14:15:55.464Z,4.63
2017-06-16T14:18:22.930Z,9.37
2017-06-16T14:20:50.378Z,8.03
2017-06-16T14:23:18.606Z,6.20
2017-06-16T14:25:46.075Z,11.13
2017-06-16T14:28:13.619Z,9.03
2017-06-16T14:30:41.079Z,8.23
2017-06-16T14:33:08.543Z,5.60
2017-06-16T14:35:36.164Z,6.97
2017-06-16T14:38:03.606Z,6.63
2017-06-16T14:40:31.128Z,7.03
2017-06-16T14:42:58.593Z,5.30
2017-06-16T14:45:26.119Z,5.50
2017-06-16T14:47:53.560Z,7.90
2017-06-16T14:50:21.036Z,10.67
2017-06-16T14:52:48.487Z,5.67
2017-06-16T14:55:15.942Z,3.87
2017-06-16T14:57:43.406Z,9.30
2017-06-16T15:00:11.647Z,6.93
2017-06-16T15:02:39.903Z,5.00
2017-06-16T15:05:07.350Z,9.47
2017-06-16T15:07:34.825Z,5.20
2017-06-16T15:10:02.290Z,8.60
2017-06-16T15:12:29.813Z,5.07
2017-06-16T15:14:57.258Z,4.50
2017-06-16T15:17:24.714Z,4.83
2017-06-16T15:19:52.171Z,2.60
2017-06-16T15:22:35.454Z,5.73
2017-06-16T15:25:02.926Z,2.83
2017-06-16T15:27:30.402Z,7.20
2017-06-16T15:29:57.870Z,5.80
2017-06-16T15:32:25.318Z,4.57
2017-06-16T15:34:52.774Z,6.37
2017-06-16T15:37:20.246Z,9.70
2017-06-16T15:39:47.699Z,5.33
2017-06-16T15:42:15.158Z,7.27
2017-06-16T15:44:42.625Z,5.03
2017-06-16T15:47:10.082Z,5.70
2017-06-16T15:49:37.555Z,8.03
2017-06-16T15:52:05.010Z,3.53
2017-06-16T15:54:32.458Z,6.80
2017-06-16T15:56:59.967Z,5.30
2017-06-16T15:59:27.467Z,5.03
2017-06-16T16:01:54.919Z,6.40
2017-06-16T16:04:22.391Z,3.63
2017-06-16T16:06:50.627Z,6.87
2017-06-16T16:09:18.171Z,3.07
2017-06-16T16:11:45.626Z,5.00
2017-06-16T16:14:13.086Z,4.33
2017-06-16T16:16:40.547Z,4.53
2017-06-16T16:19:08.010Z,7.73
2017-06-16T16:21:35.470Z,4.90
2017-06-16T16:24:02.946Z,9.90
2017-06-16T16:26:30.407Z,5.90
2017-06-16T16:28:57.866Z,5.93
2017-06-16T16:31:25.331Z,4.80
2017-06-16T16:33:52.774Z,6.43
2017-06-16T16:36:20.243Z,4.20
2017-06-16T16:38:47.722Z,6.97
2017-06-16T16:41:15.183Z,3.70
2017-06-16T16:43:42.638Z,4.33
2017-06-16T16:46:10.094Z,3.20
2017-06-16T16:48:37.552Z,7.40
2017-06-16T16:51:05.133Z,5.80
2017-06-16T16:53:32.576Z,5.00
2017-06-16T16:56:00.086Z,3.33
2017-06-16T16:58:27.574Z,7.50
2017-06-16T17:00:55.034Z,7.37
2017-06-16T17:03:22.522Z,3.30
2017-06-16T17:05:49.995Z,9.73
2017-06-16T17:08:17.466Z,10.30
2017-06-16T17:10:44.942Z,13.57
2017-06-16T17:13:12.442Z,15.57
2017-06-16T17:15:39.899Z,43.63
2017-06-16T17:18:07.374Z,41.90
2017-06-16T17:20:34.915Z,15.03
2017-06-16T17:23:02.358Z,16.53
2017-06-16T17:25:29.838Z,17.67
2017-06-16T17:27:57.294Z,23.87
2017-06-16T17:30:24.757Z,15.07
2017-06-16T17:32:52.227Z,16.93
2017-06-16T17:35:19.718Z,10.40
2017-06-16T17:37:47.185Z,12.73
2017-06-16T17:40:15.431Z,9.00
2017-06-16T17:42:42.901Z,8.80
2017-06-16T17:45:10.363Z,15.13
2017-06-16T17:47:37.819Z,9.87
2017-06-16T17:50:05.283Z,6.40
2017-06-16T17:52:32.746Z,14.63
2017-06-16T17:55:00.211Z,7.80
2017-06-16T17:57:27.784Z,8.53
2017-06-16T17:59:55.254Z,13.33
2017-06-16T18:02:22.714Z,9.23
2017-06-16T18:04:50.175Z,4.13
2017-06-16T18:07:17.665Z,9.07
2017-06-16T18:09:45.902Z,4.30
2017-06-16T18:12:13.394Z,4.27
2017-06-16T18:14:41.628Z,6.40
2017-06-16T18:17:09.175Z,4.43
2017-06-16T18:19:36.637Z,5.70
2017-06-16T18:22:04.099Z,6.17
2017-06-16T18:24:31.603Z,8.73
2017-06-16T18:26:59.825Z,6.40
2017-06-16T18:29:27.294Z,9.00
2017-06-16T18:31:54.816Z,6.03
2017-06-16T18:34:22.311Z,12.37
2017-06-16T18:36:49.775Z,8.10
2017-06-16T18:39:17.289Z,8.77
2017-06-16T18:41:44.766Z,4.40
2017-06-16T18:44:12.255Z,4.97
2017-06-16T18:46:39.723Z,5.60
2017-06-16T18:49:07.400Z,3.93
2017-06-16T18:51:34.943Z,8.40
2017-06-16T18:54:03.454Z,7.00
2017-06-16T18:56:31.704Z,6.47
2017-06-16T18:58:59.401Z,6.70
2017-06-16T19:01:26.891Z,8.17
2017-06-16T19:03:54.362Z,15.03
2017-06-16T19:06:22.070Z,4.00
2017-06-16T19:08:49.753Z,4.03
2017-06-16T19:11:17.246Z,8.10
2017-06-16T19:13:44.725Z,8.10
2017-06-16T19:16:12.434Z,7.53
2017-06-16T19:18:39.931Z,6.00
2017-06-16T19:21:07.403Z,9.33
2017-06-16T19:23:35.663Z,7.10
2017-06-16T19:26:03.135Z,5.73
2017-06-16T19:28:30.597Z,5.63
2017-06-16T19:30:59.140Z,8.73
2017-06-16T19:33:28.729Z,10.50
2017-06-16T19:35:57.555Z,5.53
2017-06-16T19:38:25.028Z,8.07
2017-06-16T19:40:53.303Z,7.07
2017-06-16T19:43:21.743Z,6.43
2017-06-16T19:45:50.174Z,4.60
2017-06-16T19:48:17.638Z,7.23
2017-06-16T19:50:45.115Z,4.87
2017-06-16T19:53:12.598Z,6.90
2017-06-16T19:55:40.514Z,4.97
2017-06-16T19:58:08.268Z,7.00
2017-06-16T20:00:35.855Z,6.13
2017-06-16T20:03:03.351Z,2.93
2017-06-16T20:05:30.814Z,7.80
2017-06-16T20:07:58.278Z,7.30
2017-06-16T20:10:25.742Z,2.80
2017-06-16T20:12:53.980Z,7.70
2017-06-16T20:15:21.659Z,5.17
2017-06-16T20:17:49.170Z,1.73
2017-06-16T20:20:16.683Z,10.40
2017-06-16T20:22:44.421Z,6.53
2017-06-16T20:25:12.678Z,10.30
2017-06-16T20:27:40.377Z,5.47
2017-06-16T20:30:07.892Z,13.23
2017-06-16T20:32:35.422Z,7.10
2017-06-16T20:35:03.650Z,5.50
2017-06-16T20:37:31.296Z,6.33
2017-06-16T20:39:58.951Z,8.83
2017-06-16T20:42:26.557Z,4.93
2017-06-16T20:44:54.045Z,6.20
2017-06-16T20:47:21.633Z,8.90
2017-06-16T20:49:49.168Z,5.50
2017-06-16T20:52:16.631Z,7.20
2017-06-16T20:54:44.102Z,7.90
2017-06-16T20:57:11.562Z,8.50
2017-06-16T20:59:39.027Z,12.00
2017-06-16T21:02:06.523Z,12.03
2017-06-16T21:04:34.892Z,7.37
2017-06-16T21:07:02.582Z,14.97
2017-06-16T21:09:30.096Z,7.10
2017-06-16T21:11:57.579Z,3.43
2017-06-16T21:14:25.814Z,5.97
2017-06-16T21:16:53.290Z,12.83
2017-06-16T21:19:21.754Z,5.30
2017-06-16T21:21:54.979Z,9.33
2017-06-16T21:24:22.447Z,6.23
2017-06-16T21:26:50.695Z,5.90
2017-06-16T21:29:18.159Z,6.57
2017-06-16T21:31:45.626Z,10.83
2017-06-16T21:34:13.090Z,4.53
2017-06-16T21:36:41.318Z,7.47
2017-06-16T21:39:08.803Z,10.63
2017-06-16T21:41:36.274Z,7.17
2017-06-16T21:44:03.818Z,5.80
2017-06-16T21:46:31.283Z,5.70
2017-06-16T21:48:58.830Z,6.87
2017-06-16T21:51:26.330Z,6.70
2017-06-16T21:53:53.795Z,7.90
2017-06-16T21:56:21.255Z,8.07
2017-06-16T21:58:48.762Z,10.87
2017-06-16T22:01:16.327Z,3.70
2017-06-16T22:03:43.786Z,11.03
2017-06-16T22:06:11.335Z,7.53
2017-06-16T22:08:38.792Z,8.80
2017-06-16T22:11:06.260Z,7.80
2017-06-16T22:13:33.802Z,12.30
2017-06-16T22:16:01.268Z,6.50
2017-06-16T22:18:28.757Z,7.33
2017-06-16T22:20:56.229Z,5.67
2017-06-16T22:23:23.698Z,9.70
2017-06-16T22:25:51.152Z,9.50
2017-06-16T22:28:18.606Z,7.60
2017-06-16T22:30:46.070Z,4.87
2017-06-16T22:33:13.531Z,6.83
2017-06-16T22:35:40.998Z,7.60
2017-06-16T22:38:08.462Z,11.07
2017-06-16T22:40:35.935Z,8.70
2017-06-16T22:43:03.411Z,9.23
2017-06-16T22:45:30.875Z,5.83
2017-06-16T22:47:58.398Z,13.40
2017-06-16T22:50:25.854Z,7.03
2017-06-16T22:52:53.331Z,5.33
2017-06-16T22:55:21.568Z,8.03
2017-06-16T22:57:49.214Z,3.70
2017-06-16T23:00:16.691Z,5.00
2017-06-16T23:02:44.168Z,9.70
2017-06-16T23:05:11.636Z,4.67
2017-06-16T23:07:39.861Z,6.53
2017-06-16T23:10:07.342Z,8.60
2017-06-16T23:12:34.790Z,6.67
2017-06-16T23:15:02.269Z,13.13
2017-06-16T23:17:29.719Z,8.70
2017-06-16T23:19:57.182Z,12.43
2017-06-16T23:22:24.635Z,5.83
2017-06-16T23:24:52.087Z,11.83
2017-06-16T23:27:19.558Z,11.73
2017-06-16T23:29:47.802Z,7.57
2017-06-16T23:32:15.259Z,8.50
2017-06-16T23:34:42.723Z,9.43
2017-06-16T23:37:10.204Z,9.70
2017-06-16T23:39:37.657Z,4.80
2017-06-16T23:42:05.120Z,8.13
2017-06-16T23:44:33.361Z,7.10
2017-06-16T23:47:00.811Z,8.70
2017-06-16T23:49:28.275Z,5.07
2017-06-16T23:51:55.731Z,4.97
2017-06-16T23:54:23.186Z,9.10
2017-06-16T23:56:50.734Z,10.00
2017-06-16T23:59:18.221Z,4.47
